sensor_id;sensor_type;location;lat;lon;timestamp;temperature;humidity
9907;DHT22;4992;51.628;6.664;2022-08-25T00:00:33;21.80;99.90
9907;DHT22;4992;51.628;6.664;2022-08-25T00:02:59;21.80;99.90
9907;DHT22;4992;51.628;6.664;2022-08-25T00:05:28;21.70;99.90
9907;DHT22;4992;51.628;6.664;2022-08-25T00:07:54;21.70;99.90
9907;DHT22;4992;51.628;6.664;2022-08-25T00:10:20;21.60;99.90
9907;DHT22;4992;51.628;6.664;2022-08-25T00:12:46;21.50;99.90
9907;DHT22;4992;51.628;6.664;2022-08-25T00:15:11;21.40;99.90
9907;DHT22;4992;51.628;6.664;2022-08-25T00:17:37;21.40;99.90
9907;DHT22;4992;51.628;6.664;2022-08-25T00:20:04;21.30;99.90
9907;DHT22;4992;51.628;6.664;2022-08-25T00:22:30;21.20;99.90
9907;DHT22;4992;51.628;6.664;2022-08-25T00:24:56;21.10;99.90
9907;DHT22;4992;51.628;6.664;2022-08-25T00:27:21;21.00;99.90
9907;DHT22;4992;51.628;6.664;2022-08-25T00:29:47;20.90;99.90
9907;DHT22;4992;51.628;6.664;2022-08-25T00:32:13;20.90;99.90
9907;DHT22;4992;51.628;6.664;2022-08-25T00:34:39;20.80;99.90
9907;DHT22;4992;51.628;6.664;2022-08-25T00:37:07;20.70;99.90
9907;DHT22;4992;51.628;6.664;2022-08-25T00:39:34;20.70;99.90
9907;DHT22;4992;51.628;6.664;2022-08-25T00:42:00;20.70;99.90
9907;DHT22;4992;51.628;6.664;2022-08-25T00:44:28;20.70;99.90
9907;DHT22;4992;51.628;6.664;2022-08-25T00:46:56;20.60;99.90
9907;DHT22;4992;51.628;6.664;2022-08-25T00:54:57;20.60;99.90
9907;DHT22;4992;51.628;6.664;2022-08-25T00:57:33;20.60;99.90
9907;DHT22;4992;51.628;6.664;2022-08-25T00:59:59;20.60;99.90
9907;DHT22;4992;51.628;6.664;2022-08-25T01:02:25;20.50;99.90
9907;DHT22;4992;51.628;6.664;2022-08-25T01:04:51;20.50;99.90
9907;DHT22;4992;51.628;6.664;2022-08-25T01:07:19;20.50;99.90
9907;DHT22;4992;51.628;6.664;2022-08-25T01:09:46;20.50;99.90
9907;DHT22;4992;51.628;6.664;2022-08-25T01:12:14;20.50;99.90
9907;DHT22;4992;51.628;6.664;2022-08-25T01:14:40;20.50;99.90
9907;DHT22;4992;51.628;6.664;2022-08-25T01:17:06;20.40;99.90
9907;DHT22;4992;51.628;6.664;2022-08-25T01:19:32;20.40;99.90
9907;DHT22;4992;51.628;6.664;2022-08-25T01:21:58;20.40;99.90
9907;DHT22;4992;51.628;6.664;2022-08-25T01:24:39;20.30;99.90
9907;DHT22;4992;51.628;6.664;2022-08-25T01:27:07;20.30;99.90
9907;DHT22;4992;51.628;6.664;2022-08-25T01:29:33;20.20;99.90
9907;DHT22;4992;51.628;6.664;2022-08-25T01:32:04;20.20;99.90
9907;DHT22;4992;51.628;6.664;2022-08-25T01:34:32;20.20;99.90
9907;DHT22;4992;51.628;6.664;2022-08-25T01:36:59;20.10;99.90
9907;DHT22;4992;51.628;6.664;2022-08-25T01:39:27;20.10;99.90
9907;DHT22;4992;51.628;6.664;2022-08-25T01:44:29;20.00;99.90
9907;DHT22;4992;51.628;6.664;2022-08-25T01:46:54;19.90;99.90
9907;DHT22;4992;51.628;6.664;2022-08-25T01:49:20;19.90;99.90
9907;DHT22;4992;51.628;6.664;2022-08-25T01:51:52;19.90;99.90
9907;DHT22;4992;51.628;6.664;2022-08-25T01:54:20;19.80;99.90
9907;DHT22;4992;51.628;6.664;2022-08-25T01:56:45;19.70;99.90
9907;DHT22;4992;51.628;6.664;2022-08-25T01:59:14;19.70;99.90
9907;DHT22;4992;51.628;6.664;2022-08-25T02:01:40;19.60;99.90
9907;DHT22;4992;51.628;6.664;2022-08-25T02:04:06;19.60;99.90
9907;DHT22;4992;51.628;6.664;2022-08-25T02:06:33;19.50;99.90
9907;DHT22;4992;51.628;6.664;2022-08-25T02:09:03;19.50;99.90
9907;DHT22;4992;51.628;6.664;2022-08-25T02:11:30;19.40;99.90
9907;DHT22;4992;51.628;6.664;2022-08-25T02:13:56;19.40;99.90
9907;DHT22;4992;51.628;6.664;2022-08-25T02:16:26;19.30;99.90
9907;DHT22;4992;51.628;6.664;2022-08-25T02:18:53;19.30;99.90
9907;DHT22;4992;51.628;6.664;2022-08-25T02:21:19;19.20;99.90
9907;DHT22;4992;51.628;6.664;2022-08-25T02:23:44;19.20;99.90
9907;DHT22;4992;51.628;6.664;2022-08-25T02:26:11;19.20;99.90
9907;DHT22;4992;51.628;6.664;2022-08-25T02:28:41;19.10;99.90
9907;DHT22;4992;51.628;6.664;2022-08-25T02:31:06;19.00;99.90
9907;DHT22;4992;51.628;6.664;2022-08-25T02:33:32;19.00;99.90
9907;DHT22;4992;51.628;6.664;2022-08-25T02:36:01;19.00;99.90
9907;DHT22;4992;51.628;6.664;2022-08-25T02:38:28;19.00;99.90
9907;DHT22;4992;51.628;6.664;2022-08-25T02:40:54;18.90;99.90
9907;DHT22;4992;51.628;6.664;2022-08-25T02:43:20;18.90;99.90
9907;DHT22;4992;51.628;6.664;2022-08-25T02:45:46;18.90;99.90
9907;DHT22;4992;51.628;6.664;2022-08-25T02:48:12;18.90;99.90
9907;DHT22;4992;51.628;6.664;2022-08-25T02:50:37;18.90;99.90
9907;DHT22;4992;51.628;6.664;2022-08-25T02:53:03;18.90;99.90
9907;DHT22;4992;51.628;6.664;2022-08-25T02:55:28;18.90;99.90
9907;DHT22;4992;51.628;6.664;2022-08-25T02:57:54;18.90;99.90
9907;DHT22;4992;51.628;6.664;2022-08-25T03:00:20;18.90;99.90
9907;DHT22;4992;51.628;6.664;2022-08-25T03:02:46;18.90;99.90
9907;DHT22;4992;51.628;6.664;2022-08-25T03:05:13;18.90;99.90
9907;DHT22;4992;51.628;6.664;2022-08-25T03:07:40;18.90;99.90
9907;DHT22;4992;51.628;6.664;2022-08-25T03:10:12;18.90;99.90
9907;DHT22;4992;51.628;6.664;2022-08-25T03:12:38;18.90;99.90
9907;DHT22;4992;51.628;6.664;2022-08-25T03:15:06;18.80;99.90
9907;DHT22;4992;51.628;6.664;2022-08-25T03:17:32;18.80;99.90
9907;DHT22;4992;51.628;6.664;2022-08-25T03:19:58;18.70;99.90
9907;DHT22;4992;51.628;6.664;2022-08-25T03:22:23;18.80;99.90
9907;DHT22;4992;51.628;6.664;2022-08-25T03:24:49;18.80;99.90
9907;DHT22;4992;51.628;6.664;2022-08-25T03:27:14;18.80;99.90
9907;DHT22;4992;51.628;6.664;2022-08-25T03:29:40;18.80;99.90
9907;DHT22;4992;51.628;6.664;2022-08-25T03:32:08;18.80;99.90
9907;DHT22;4992;51.628;6.664;2022-08-25T03:34:34;18.80;99.90
9907;DHT22;4992;51.628;6.664;2022-08-25T03:37:00;18.80;99.90
9907;DHT22;4992;51.628;6.664;2022-08-25T03:39:26;18.70;99.90
9907;DHT22;4992;51.628;6.664;2022-08-25T03:41:52;18.70;99.90
9907;DHT22;4992;51.628;6.664;2022-08-25T03:44:19;18.70;99.90
9907;DHT22;4992;51.628;6.664;2022-08-25T03:46:48;18.70;99.90
9907;DHT22;4992;51.628;6.664;2022-08-25T03:49:17;18.70;99.90
9907;DHT22;4992;51.628;6.664;2022-08-25T03:51:45;18.70;99.90
9907;DHT22;4992;51.628;6.664;2022-08-25T03:54:13;18.60;99.90
9907;DHT22;4992;51.628;6.664;2022-08-25T03:56:40;18.60;99.90
9907;DHT22;4992;51.628;6.664;2022-08-25T03:59:06;18.60;99.90
9907;DHT22;4992;51.628;6.664;2022-08-25T04:01:35;18.60;99.90
9907;DHT22;4992;51.628;6.664;2022-08-25T04:04:02;18.50;99.90
9907;DHT22;4992;51.628;6.664;2022-08-25T04:06:28;18.50;99.90
9907;DHT22;4992;51.628;6.664;2022-08-25T04:08:53;18.40;99.90
9907;DHT22;4992;51.628;6.664;2022-08-25T04:11:21;18.40;99.90
9907;DHT22;4992;51.628;6.664;2022-08-25T04:13:49;18.40;99.90
9907;DHT22;4992;51.628;6.664;2022-08-25T04:16:21;18.30;99.90
9907;DHT22;4992;51.628;6.664;2022-08-25T04:18:48;18.30;99.90
9907;DHT22;4992;51.628;6.664;2022-08-25T04:21:16;18.30;99.90
9907;DHT22;4992;51.628;6.664;2022-08-25T04:23:43;18.20;99.90
9907;DHT22;4992;51.628;6.664;2022-08-25T04:26:21;18.20;99.90
9907;DHT22;4992;51.628;6.664;2022-08-25T04:28:47;18.20;99.90
9907;DHT22;4992;51.628;6.664;2022-08-25T04:31:18;18.20;99.90
9907;DHT22;4992;51.628;6.664;2022-08-25T04:33:44;18.20;99.90
9907;DHT22;4992;51.628;6.664;2022-08-25T04:36:12;18.10;99.90
9907;DHT22;4992;51.628;6.664;2022-08-25T04:38:40;18.10;99.90
9907;DHT22;4992;51.628;6.664;2022-08-25T04:41:07;18.10;99.90
9907;DHT22;4992;51.628;6.664;2022-08-25T04:43:34;18.10;99.90
9907;DHT22;4992;51.628;6.664;2022-08-25T04:46:08;18.10;99.90
9907;DHT22;4992;51.628;6.664;2022-08-25T04:48:35;18.00;99.90
9907;DHT22;4992;51.628;6.664;2022-08-25T04:51:29;18.10;99.90
9907;DHT22;4992;51.628;6.664;2022-08-25T04:53:57;18.10;99.90
9907;DHT22;4992;51.628;6.664;2022-08-25T04:56:23;18.10;99.90
9907;DHT22;4992;51.628;6.664;2022-08-25T04:58:50;18.10;99.90
9907;DHT22;4992;51.628;6.664;2022-08-25T05:01:18;18.00;99.90
9907;DHT22;4992;51.628;6.664;2022-08-25T05:03:45;18.10;99.90
9907;DHT22;4992;51.628;6.664;2022-08-25T05:06:11;18.00;99.90
9907;DHT22;4992;51.628;6.664;2022-08-25T05:08:37;18.00;99.90
9907;DHT22;4992;51.628;6.664;2022-08-25T05:11:08;18.10;99.90
9907;DHT22;4992;51.628;6.664;2022-08-25T05:13:35;18.10;99.90
9907;DHT22;4992;51.628;6.664;2022-08-25T05:16:01;18.10;99.90
9907;DHT22;4992;51.628;6.664;2022-08-25T05:18:30;18.10;99.90
9907;DHT22;4992;51.628;6.664;2022-08-25T05:21:00;18.10;99.90
9907;DHT22;4992;51.628;6.664;2022-08-25T05:23:26;18.10;99.90
9907;DHT22;4992;51.628;6.664;2022-08-25T05:25:51;18.10;99.90
9907;DHT22;4992;51.628;6.664;2022-08-25T05:28:18;18.20;99.90
9907;DHT22;4992;51.628;6.664;2022-08-25T05:30:44;18.20;99.90
9907;DHT22;4992;51.628;6.664;2022-08-25T05:33:13;18.20;99.90
9907;DHT22;4992;51.628;6.664;2022-08-25T05:35:39;18.30;99.90
9907;DHT22;4992;51.628;6.664;2022-08-25T05:38:08;18.30;99.90
9907;DHT22;4992;51.628;6.664;2022-08-25T05:40:35;18.40;99.90
9907;DHT22;4992;51.628;6.664;2022-08-25T05:43:00;18.40;99.90
9907;DHT22;4992;51.628;6.664;2022-08-25T05:45:26;18.50;99.90
9907;DHT22;4992;51.628;6.664;2022-08-25T05:47:51;18.50;99.90
9907;DHT22;4992;51.628;6.664;2022-08-25T05:50:17;18.70;99.90
9907;DHT22;4992;51.628;6.664;2022-08-25T05:52:43;18.80;99.90
9907;DHT22;4992;51.628;6.664;2022-08-25T05:55:09;18.90;99.90
9907;DHT22;4992;51.628;6.664;2022-08-25T05:57:35;19.00;99.90
9907;DHT22;4992;51.628;6.664;2022-08-25T06:00:02;19.10;99.90
9907;DHT22;4992;51.628;6.664;2022-08-25T06:02:28;19.20;99.90
9907;DHT22;4992;51.628;6.664;2022-08-25T06:05:09;19.40;99.90
9907;DHT22;4992;51.628;6.664;2022-08-25T06:07:35;19.60;99.90
9907;DHT22;4992;51.628;6.664;2022-08-25T06:10:03;19.70;99.90
9907;DHT22;4992;51.628;6.664;2022-08-25T06:12:29;19.90;99.90
9907;DHT22;4992;51.628;6.664;2022-08-25T06:14:56;20.10;99.90
9907;DHT22;4992;51.628;6.664;2022-08-25T06:17:22;20.30;99.90
9907;DHT22;4992;51.628;6.664;2022-08-25T06:19:47;20.50;99.90
9907;DHT22;4992;51.628;6.664;2022-08-25T06:22:13;20.70;99.90
9907;DHT22;4992;51.628;6.664;2022-08-25T06:24:39;20.90;99.90
9907;DHT22;4992;51.628;6.664;2022-08-25T06:27:04;21.10;99.90
9907;DHT22;4992;51.628;6.664;2022-08-25T06:29:30;21.30;99.90
9907;DHT22;4992;51.628;6.664;2022-08-25T06:31:55;21.60;99.90
9907;DHT22;4992;51.628;6.664;2022-08-25T06:34:21;21.70;99.90
9907;DHT22;4992;51.628;6.664;2022-08-25T06:36:46;21.90;99.90
9907;DHT22;4992;51.628;6.664;2022-08-25T06:39:12;22.10;99.90
9907;DHT22;4992;51.628;6.664;2022-08-25T06:41:38;22.30;99.90
9907;DHT22;4992;51.628;6.664;2022-08-25T06:44:04;22.50;99.90
9907;DHT22;4992;51.628;6.664;2022-08-25T06:46:30;22.70;99.90
9907;DHT22;4992;51.628;6.664;2022-08-25T06:48:56;22.90;99.90
9907;DHT22;4992;51.628;6.664;2022-08-25T06:51:24;23.20;99.90
9907;DHT22;4992;51.628;6.664;2022-08-25T06:53:51;23.40;99.90
9907;DHT22;4992;51.628;6.664;2022-08-25T06:56:19;23.50;99.90
9907;DHT22;4992;51.628;6.664;2022-08-25T06:58:46;23.70;99.90
9907;DHT22;4992;51.628;6.664;2022-08-25T07:01:21;23.80;99.90
9907;DHT22;4992;51.628;6.664;2022-08-25T07:03:49;23.90;99.90
9907;DHT22;4992;51.628;6.664;2022-08-25T07:06:15;24.10;99.90
9907;DHT22;4992;51.628;6.664;2022-08-25T07:08:42;24.40;99.90
9907;DHT22;4992;51.628;6.664;2022-08-25T07:11:10;24.60;99.90
9907;DHT22;4992;51.628;6.664;2022-08-25T07:13:36;24.80;99.90
9907;DHT22;4992;51.628;6.664;2022-08-25T07:16:03;24.90;99.90
9907;DHT22;4992;51.628;6.664;2022-08-25T07:18:28;25.10;99.90
9907;DHT22;4992;51.628;6.664;2022-08-25T07:20:54;25.30;99.90
9907;DHT22;4992;51.628;6.664;2022-08-25T07:23:21;25.50;99.90
9907;DHT22;4992;51.628;6.664;2022-08-25T07:25:47;25.60;99.90
9907;DHT22;4992;51.628;6.664;2022-08-25T07:28:13;25.80;99.90
9907;DHT22;4992;51.628;6.664;2022-08-25T07:30:39;25.90;99.90
9907;DHT22;4992;51.628;6.664;2022-08-25T07:33:05;26.10;99.90
9907;DHT22;4992;51.628;6.664;2022-08-25T07:35:31;26.20;99.90
9907;DHT22;4992;51.628;6.664;2022-08-25T07:37:57;26.30;99.90
9907;DHT22;4992;51.628;6.664;2022-08-25T07:40:26;26.60;99.90
9907;DHT22;4992;51.628;6.664;2022-08-25T07:42:54;26.80;99.90
9907;DHT22;4992;51.628;6.664;2022-08-25T07:45:22;26.90;99.90
9907;DHT22;4992;51.628;6.664;2022-08-25T07:47:59;27.10;99.90
9907;DHT22;4992;51.628;6.664;2022-08-25T07:50:26;27.30;99.90
9907;DHT22;4992;51.628;6.664;2022-08-25T07:52:52;27.40;99.90
9907;DHT22;4992;51.628;6.664;2022-08-25T07:55:18;27.50;99.90
9907;DHT22;4992;51.628;6.664;2022-08-25T07:57:44;27.60;99.90
9907;DHT22;4992;51.628;6.664;2022-08-25T08:00:13;27.80;99.90
9907;DHT22;4992;51.628;6.664;2022-08-25T08:02:40;28.00;99.90
9907;DHT22;4992;51.628;6.664;2022-08-25T08:05:07;28.00;99.90
9907;DHT22;4992;51.628;6.664;2022-08-25T08:07:32;28.10;99.90
9907;DHT22;4992;51.628;6.664;2022-08-25T08:09:58;28.10;99.90
9907;DHT22;4992;51.628;6.664;2022-08-25T08:12:24;28.20;99.90
9907;DHT22;4992;51.628;6.664;2022-08-25T08:14:50;28.20;99.90
9907;DHT22;4992;51.628;6.664;2022-08-25T08:17:16;28.30;99.90
9907;DHT22;4992;51.628;6.664;2022-08-25T08:19:42;28.30;99.90
9907;DHT22;4992;51.628;6.664;2022-08-25T08:22:08;28.50;99.90
9907;DHT22;4992;51.628;6.664;2022-08-25T08:24:36;28.60;99.90
9907;DHT22;4992;51.628;6.664;2022-08-25T08:27:06;28.70;99.90
9907;DHT22;4992;51.628;6.664;2022-08-25T08:29:36;28.90;99.90
9907;DHT22;4992;51.628;6.664;2022-08-25T08:32:03;29.10;99.90
9907;DHT22;4992;51.628;6.664;2022-08-25T08:34:30;29.10;99.90
9907;DHT22;4992;51.628;6.664;2022-08-25T08:36:57;29.30;99.90
9907;DHT22;4992;51.628;6.664;2022-08-25T08:39:23;29.50;99.90
9907;DHT22;4992;51.628;6.664;2022-08-25T08:47:50;30.10;99.90
9907;DHT22;4992;51.628;6.664;2022-08-25T08:53:04;30.40;99.90
9907;DHT22;4992;51.628;6.664;2022-08-25T08:55:39;30.60;99.90
9907;DHT22;4992;51.628;6.664;2022-08-25T08:58:10;30.60;99.90
9907;DHT22;4992;51.628;6.664;2022-08-25T09:00:43;30.70;99.90
9907;DHT22;4992;51.628;6.664;2022-08-25T09:03:15;30.90;99.90
9907;DHT22;4992;51.628;6.664;2022-08-25T09:05:50;31.10;99.90
9907;DHT22;4992;51.628;6.664;2022-08-25T09:08:17;31.20;99.90
9907;DHT22;4992;51.628;6.664;2022-08-25T09:16:23;31.70;99.90
9907;DHT22;4992;51.628;6.664;2022-08-25T09:21:56;32.10;99.90
9907;DHT22;4992;51.628;6.664;2022-08-25T09:24:36;32.30;99.90
9907;DHT22;4992;51.628;6.664;2022-08-25T09:27:17;32.40;99.90
9907;DHT22;4992;51.628;6.664;2022-08-25T09:30:03;32.60;99.90
9907;DHT22;4992;51.628;6.664;2022-08-25T09:32:38;32.70;99.90
9907;DHT22;4992;51.628;6.664;2022-08-25T09:35:06;32.80;99.90
9907;DHT22;4992;51.628;6.664;2022-08-25T09:37:32;32.90;99.90
9907;DHT22;4992;51.628;6.664;2022-08-25T09:39:58;33.00;99.90
9907;DHT22;4992;51.628;6.664;2022-08-25T09:42:44;33.20;99.90
9907;DHT22;4992;51.628;6.664;2022-08-25T09:45:13;33.30;99.90
9907;DHT22;4992;51.628;6.664;2022-08-25T09:47:43;33.40;99.90
9907;DHT22;4992;51.628;6.664;2022-08-25T09:50:15;33.50;99.90
9907;DHT22;4992;51.628;6.664;2022-08-25T09:52:42;33.60;99.90
9907;DHT22;4992;51.628;6.664;2022-08-25T10:02:39;34.20;99.90
9907;DHT22;4992;51.628;6.664;2022-08-25T10:05:25;34.30;99.90
9907;DHT22;4992;51.628;6.664;2022-08-25T10:07:55;34.30;99.90
9907;DHT22;4992;51.628;6.664;2022-08-25T10:10:31;34.40;99.90
9907;DHT22;4992;51.628;6.664;2022-08-25T10:12:58;34.40;98.90
9907;DHT22;4992;51.628;6.664;2022-08-25T10:15:34;34.40;99.10
9907;DHT22;4992;51.628;6.664;2022-08-25T10:18:24;34.70;98.50
9907;DHT22;4992;51.628;6.664;2022-08-25T10:23:40;35.30;98.20
9907;DHT22;4992;51.628;6.664;2022-08-25T10:26:13;35.60;96.30
9907;DHT22;4992;51.628;6.664;2022-08-25T10:31:53;36.40;96.00
9907;DHT22;4992;51.628;6.664;2022-08-25T10:38:06;37.30;93.50
9907;DHT22;4992;51.628;6.664;2022-08-25T10:40:32;37.60;92.60
9907;DHT22;4992;51.628;6.664;2022-08-25T10:43:05;38.00;92.10
9907;DHT22;4992;51.628;6.664;2022-08-25T10:45:40;38.40;91.30
9907;DHT22;4992;51.628;6.664;2022-08-25T10:48:31;38.10;85.70
9907;DHT22;4992;51.628;6.664;2022-08-25T10:56:22;38.70;81.70
9907;DHT22;4992;51.628;6.664;2022-08-25T10:58:55;38.70;78.70
9907;DHT22;4992;51.628;6.664;2022-08-25T11:04:42;38.80;75.80
9907;DHT22;4992;51.628;6.664;2022-08-25T11:09:49;40.00;72.50
9907;DHT22;4992;51.628;6.664;2022-08-25T11:12:29;40.30;73.20
9907;DHT22;4992;51.628;6.664;2022-08-25T11:17:59;40.70;68.90
9907;DHT22;4992;51.628;6.664;2022-08-25T11:20:36;40.90;69.20
9907;DHT22;4992;51.628;6.664;2022-08-25T11:23:19;41.30;66.30
9907;DHT22;4992;51.628;6.664;2022-08-25T11:25:59;41.60;65.00
9907;DHT22;4992;51.628;6.664;2022-08-25T11:30:57;42.10;65.90
9907;DHT22;4992;51.628;6.664;2022-08-25T11:33:24;42.40;65.30
9907;DHT22;4992;51.628;6.664;2022-08-25T11:41:56;42.10;62.90
9907;DHT22;4992;51.628;6.664;2022-08-25T11:45:02;42.50;61.90
9907;DHT22;4992;51.628;6.664;2022-08-25T11:50:30;43.70;59.40
9907;DHT22;4992;51.628;6.664;2022-08-25T11:55:49;44.20;58.50
9907;DHT22;4992;51.628;6.664;2022-08-25T12:01:09;44.00;57.90
9907;DHT22;4992;51.628;6.664;2022-08-25T12:06:26;44.00;57.00
9907;DHT22;4992;51.628;6.664;2022-08-25T12:27:29;44.70;54.50
9907;DHT22;4992;51.628;6.664;2022-08-25T12:38:06;44.90;53.10
9907;DHT22;4992;51.628;6.664;2022-08-25T12:40:38;44.40;53.80
9907;DHT22;4992;51.628;6.664;2022-08-25T12:43:27;44.30;54.10
9907;DHT22;4992;51.628;6.664;2022-08-25T12:54:21;44.40;52.80
9907;DHT22;4992;51.628;6.664;2022-08-25T12:56:56;44.20;52.70
9907;DHT22;4992;51.628;6.664;2022-08-25T12:59:41;44.60;52.30
9907;DHT22;4992;51.628;6.664;2022-08-25T13:02:40;44.50;52.10
9907;DHT22;4992;51.628;6.664;2022-08-25T13:13:53;43.80;54.10
9907;DHT22;4992;51.628;6.664;2022-08-25T13:16:24;43.70;53.10
9907;DHT22;4992;51.628;6.664;2022-08-25T13:18:51;43.20;53.20
9907;DHT22;4992;51.628;6.664;2022-08-25T13:23:58;41.40;55.40
9907;DHT22;4992;51.628;6.664;2022-08-25T13:26:32;41.60;56.00
9907;DHT22;4992;51.628;6.664;2022-08-25T13:29:20;41.70;56.10
9907;DHT22;4992;51.628;6.664;2022-08-25T13:31:58;40.70;55.70
9907;DHT22;4992;51.628;6.664;2022-08-25T13:34:26;39.90;56.80
9907;DHT22;4992;51.628;6.664;2022-08-25T13:36:53;39.60;57.90
9907;DHT22;4992;51.628;6.664;2022-08-25T13:39:37;39.00;57.60
9907;DHT22;4992;51.628;6.664;2022-08-25T13:42:05;39.00;58.80
9907;DHT22;4992;51.628;6.664;2022-08-25T13:44:36;39.50;58.70
9907;DHT22;4992;51.628;6.664;2022-08-25T13:49:34;40.30;58.80
9907;DHT22;4992;51.628;6.664;2022-08-25T13:52:01;40.50;57.10
9907;DHT22;4992;51.628;6.664;2022-08-25T13:54:35;40.30;56.80
9907;DHT22;4992;51.628;6.664;2022-08-25T13:57:17;39.90;57.10
9907;DHT22;4992;51.628;6.664;2022-08-25T13:59:48;39.90;58.70
9907;DHT22;4992;51.628;6.664;2022-08-25T14:02:46;40.10;57.80
9907;DHT22;4992;51.628;6.664;2022-08-25T14:05:13;40.50;57.10
9907;DHT22;4992;51.628;6.664;2022-08-25T14:07:39;40.90;56.90
9907;DHT22;4992;51.628;6.664;2022-08-25T14:10:10;41.00;56.20
9907;DHT22;4992;51.628;6.664;2022-08-25T14:15:50;40.00;57.50
9907;DHT22;4992;51.628;6.664;2022-08-25T14:18:34;39.30;57.80
9907;DHT22;4992;51.628;6.664;2022-08-25T14:21:01;38.80;57.90
9907;DHT22;4992;51.628;6.664;2022-08-25T14:23:35;38.30;58.80
9907;DHT22;4992;51.628;6.664;2022-08-25T14:26:01;38.20;59.20
9907;DHT22;4992;51.628;6.664;2022-08-25T14:28:28;38.00;59.30
9907;DHT22;4992;51.628;6.664;2022-08-25T14:31:04;37.80;59.60
9907;DHT22;4992;51.628;6.664;2022-08-25T14:33:37;37.80;59.90
9907;DHT22;4992;51.628;6.664;2022-08-25T14:36:04;38.30;59.70
9907;DHT22;4992;51.628;6.664;2022-08-25T14:38:30;38.90;59.60
9907;DHT22;4992;51.628;6.664;2022-08-25T14:40:56;39.60;58.40
9907;DHT22;4992;51.628;6.664;2022-08-25T14:43:22;40.10;57.50
9907;DHT22;4992;51.628;6.664;2022-08-25T14:45:47;40.50;56.10
9907;DHT22;4992;51.628;6.664;2022-08-25T14:48:20;40.90;57.10
9907;DHT22;4992;51.628;6.664;2022-08-25T14:50:48;41.30;55.70
9907;DHT22;4992;51.628;6.664;2022-08-25T14:53:14;41.50;56.00
9907;DHT22;4992;51.628;6.664;2022-08-25T14:55:40;41.80;56.50
9907;DHT22;4992;51.628;6.664;2022-08-25T14:58:06;42.50;57.00
9907;DHT22;4992;51.628;6.664;2022-08-25T15:00:31;42.80;56.00
9907;DHT22;4992;51.628;6.664;2022-08-25T15:02:57;43.10;56.20
9907;DHT22;4992;51.628;6.664;2022-08-25T15:05:24;43.50;55.60
9907;DHT22;4992;51.628;6.664;2022-08-25T15:07:52;43.20;54.40
9907;DHT22;4992;51.628;6.664;2022-08-25T15:10:37;42.60;54.70
9907;DHT22;4992;51.628;6.664;2022-08-25T15:13:02;42.50;54.80
9907;DHT22;4992;51.628;6.664;2022-08-25T15:15:30;41.90;55.20
9907;DHT22;4992;51.628;6.664;2022-08-25T15:17:57;41.80;55.40
9907;DHT22;4992;51.628;6.664;2022-08-25T15:20:22;41.70;55.50
9907;DHT22;4992;51.628;6.664;2022-08-25T15:22:48;41.80;56.40
9907;DHT22;4992;51.628;6.664;2022-08-25T15:25:14;41.80;55.20
9907;DHT22;4992;51.628;6.664;2022-08-25T15:27:39;41.50;55.40
9907;DHT22;4992;51.628;6.664;2022-08-25T15:30:06;40.60;55.70
9907;DHT22;4992;51.628;6.664;2022-08-25T15:32:32;39.50;56.70
9907;DHT22;4992;51.628;6.664;2022-08-25T15:34:58;38.60;58.80
9907;DHT22;4992;51.628;6.664;2022-08-25T15:37:24;37.60;58.80
9907;DHT22;4992;51.628;6.664;2022-08-25T15:39:50;36.80;60.00
9907;DHT22;4992;51.628;6.664;2022-08-25T15:42:16;36.30;60.00
9907;DHT22;4992;51.628;6.664;2022-08-25T15:44:42;35.90;61.90
9907;DHT22;4992;51.628;6.664;2022-08-25T15:47:08;35.40;62.80
9907;DHT22;4992;51.628;6.664;2022-08-25T15:49:34;35.10;64.30
9907;DHT22;4992;51.628;6.664;2022-08-25T15:52:00;34.90;64.50
9907;DHT22;4992;51.628;6.664;2022-08-25T15:54:27;34.60;65.00
9907;DHT22;4992;51.628;6.664;2022-08-25T15:56:54;34.30;64.80
9907;DHT22;4992;51.628;6.664;2022-08-25T15:59:20;34.10;64.80
9907;DHT22;4992;51.628;6.664;2022-08-25T16:01:46;33.90;65.20
9907;DHT22;4992;51.628;6.664;2022-08-25T16:04:12;33.70;65.00
9907;DHT22;4992;51.628;6.664;2022-08-25T16:06:39;33.50;66.30
9907;DHT22;4992;51.628;6.664;2022-08-25T16:09:06;33.40;67.30
9907;DHT22;4992;51.628;6.664;2022-08-25T16:11:32;33.40;67.80
9907;DHT22;4992;51.628;6.664;2022-08-25T16:13:59;33.30;66.60
9907;DHT22;4992;51.628;6.664;2022-08-25T16:16:27;33.10;67.20
9907;DHT22;4992;51.628;6.664;2022-08-25T16:18:54;33.00;67.30
9907;DHT22;4992;51.628;6.664;2022-08-25T16:21:23;33.00;68.90
9907;DHT22;4992;51.628;6.664;2022-08-25T16:23:52;32.90;68.40
9907;DHT22;4992;51.628;6.664;2022-08-25T16:26:18;32.90;68.20
9907;DHT22;4992;51.628;6.664;2022-08-25T16:28:44;32.80;67.70
9907;DHT22;4992;51.628;6.664;2022-08-25T16:31:11;32.80;67.50
9907;DHT22;4992;51.628;6.664;2022-08-25T16:33:37;32.80;69.30
9907;DHT22;4992;51.628;6.664;2022-08-25T16:36:09;32.70;68.60
9907;DHT22;4992;51.628;6.664;2022-08-25T16:38:36;32.70;70.30
9907;DHT22;4992;51.628;6.664;2022-08-25T16:41:10;32.70;69.20
9907;DHT22;4992;51.628;6.664;2022-08-25T16:43:36;32.60;67.50
9907;DHT22;4992;51.628;6.664;2022-08-25T16:46:05;32.60;67.40
9907;DHT22;4992;51.628;6.664;2022-08-25T16:48:31;32.60;68.00
9907;DHT22;4992;51.628;6.664;2022-08-25T16:50:57;32.60;69.40
9907;DHT22;4992;51.628;6.664;2022-08-25T16:53:25;32.60;81.20
9907;DHT22;4992;51.628;6.664;2022-08-25T16:56:09;32.40;80.00
9907;DHT22;4992;51.628;6.664;2022-08-25T16:58:35;32.20;90.30
9907;DHT22;4992;51.628;6.664;2022-08-25T17:01:10;31.90;92.80
9907;DHT22;4992;51.628;6.664;2022-08-25T17:03:38;31.70;82.80
9907;DHT22;4992;51.628;6.664;2022-08-25T17:06:04;31.50;81.00
9907;DHT22;4992;51.628;6.664;2022-08-25T17:08:30;31.40;93.30
9907;DHT22;4992;51.628;6.664;2022-08-25T17:11:10;31.20;94.60
9907;DHT22;4992;51.628;6.664;2022-08-25T17:13:38;31.00;97.30
9907;DHT22;4992;51.628;6.664;2022-08-25T17:16:05;30.90;97.30
9907;DHT22;4992;51.628;6.664;2022-08-25T17:18:31;30.80;99.40
9907;DHT22;4992;51.628;6.664;2022-08-25T17:20:59;30.60;99.90
9907;DHT22;4992;51.628;6.664;2022-08-25T17:23:25;30.50;99.90
9907;DHT22;4992;51.628;6.664;2022-08-25T17:25:51;30.30;99.90
9907;DHT22;4992;51.628;6.664;2022-08-25T17:28:17;30.20;99.90
9907;DHT22;4992;51.628;6.664;2022-08-25T17:30:43;30.00;94.70
9907;DHT22;4992;51.628;6.664;2022-08-25T17:33:10;30.00;94.90
9907;DHT22;4992;51.628;6.664;2022-08-25T17:35:40;30.00;92.60
9907;DHT22;4992;51.628;6.664;2022-08-25T17:38:06;30.00;96.70
9907;DHT22;4992;51.628;6.664;2022-08-25T17:40:31;30.00;99.90
9907;DHT22;4992;51.628;6.664;2022-08-25T17:42:57;29.90;99.50
9907;DHT22;4992;51.628;6.664;2022-08-25T17:45:23;29.90;97.50
9907;DHT22;4992;51.628;6.664;2022-08-25T17:47:48;29.80;98.00
9907;DHT22;4992;51.628;6.664;2022-08-25T17:50:14;29.80;98.80
9907;DHT22;4992;51.628;6.664;2022-08-25T17:52:40;29.80;99.90
9907;DHT22;4992;51.628;6.664;2022-08-25T17:55:06;29.80;99.90
9907;DHT22;4992;51.628;6.664;2022-08-25T17:57:32;29.70;99.90
9907;DHT22;4992;51.628;6.664;2022-08-25T17:59:57;29.60;99.90
9907;DHT22;4992;51.628;6.664;2022-08-25T18:02:23;29.50;99.90
9907;DHT22;4992;51.628;6.664;2022-08-25T18:04:49;29.30;99.90
9907;DHT22;4992;51.628;6.664;2022-08-25T18:07:14;29.20;99.90
9907;DHT22;4992;51.628;6.664;2022-08-25T18:09:40;29.10;99.90
9907;DHT22;4992;51.628;6.664;2022-08-25T18:12:05;29.00;99.90
9907;DHT22;4992;51.628;6.664;2022-08-25T18:14:31;28.90;99.90
9907;DHT22;4992;51.628;6.664;2022-08-25T18:16:56;28.70;99.90
9907;DHT22;4992;51.628;6.664;2022-08-25T18:19:22;28.60;99.90